createdAt,value
2019-03-16T19:22:14.213Z,999.80
2019-03-16T19:23:01.720Z,999.79
2019-03-16T19:24:01.540Z,999.82
2019-03-16T19:25:01.499Z,999.78
2019-03-16T19:26:01.450Z,999.75
2019-03-16T19:27:01.404Z,999.83
2019-03-16T19:27:50.080Z,999.84
2019-03-16T19:28:49.939Z,999.86
2019-03-16T19:29:49.933Z,999.85
2019-03-16T19:30:49.900Z,999.70
2019-03-16T19:31:49.841Z,999.76
2019-03-16T19:32:49.814Z,999.70
2019-03-16T19:33:30.313Z,999.65
2019-03-16T19:34:18.391Z,999.66
2019-03-16T19:34:31.642Z,999.65
2019-03-16T19:35:31.669Z,999.69
2019-03-16T19:36:31.657Z,999.67
2019-03-16T19:37:31.585Z,999.69
2019-03-16T19:38:31.543Z,999.65
2019-03-16T19:39:31.526Z,999.65
2019-03-16T19:40:08.611Z,999.61
2019-03-16T19:40:45.363Z,999.66
2019-03-16T19:41:45.316Z,999.66
2019-03-16T19:42:46.677Z,999.65
2019-03-16T19:43:02.820Z,999.64
2019-03-16T19:43:35.359Z,999.68
2019-03-16T19:44:16.719Z,999.63
2019-03-16T19:45:16.662Z,999.62
2019-03-16T19:46:01.266Z,999.63
2019-03-16T19:46:15.904Z,999.64
2019-03-16T19:46:57.424Z,999.64
2019-03-16T19:47:46.717Z,999.62
2019-03-16T19:48:46.610Z,999.58
2019-03-16T19:49:46.601Z,999.54
2019-03-16T19:50:46.568Z,999.58
2019-03-16T19:51:46.497Z,999.66
2019-03-16T19:52:46.463Z,999.60
2019-03-16T19:53:46.427Z,999.62
2019-03-16T19:54:46.388Z,999.60
2019-03-16T19:55:46.352Z,999.63
2019-03-16T19:56:46.345Z,999.62
2019-03-16T19:57:46.286Z,999.65
2019-03-16T19:58:46.282Z,999.59
2019-03-16T19:59:46.222Z,999.58
2019-03-16T20:00:46.185Z,999.58
2019-03-16T20:01:46.147Z,999.52
2019-03-16T20:02:50.986Z,999.59
2019-03-16T20:03:46.184Z,999.62
2019-03-16T20:04:46.055Z,999.63
2019-03-16T20:05:46.020Z,999.66
2019-03-16T20:06:45.988Z,999.61
2019-03-16T20:07:45.958Z,999.59
2019-03-16T20:09:11.486Z,999.60
2019-03-16T20:10:11.424Z,999.60
2019-03-16T20:10:44.777Z,999.62
2019-03-16T20:11:31.705Z,999.57
2019-03-16T20:12:31.667Z,999.54
2019-03-16T20:13:31.631Z,999.56
2019-03-16T20:14:31.587Z,999.57
2019-03-16T20:15:31.570Z,999.54
2019-03-16T20:16:31.528Z,999.55
2019-03-16T20:17:31.492Z,999.48
2019-03-16T20:18:31.445Z,999.52
2019-03-16T20:19:31.374Z,999.53
2019-03-16T20:20:31.333Z,999.51
2019-03-16T20:21:31.279Z,999.49
2019-03-16T20:22:31.230Z,999.54
2019-03-16T20:23:31.183Z,999.44
2019-03-16T20:24:31.214Z,999.46
2019-03-16T20:25:31.117Z,999.51
2019-03-16T20:26:31.045Z,999.52
2019-03-16T20:27:30.991Z,999.45
2019-03-16T20:28:30.971Z,999.50
2019-03-16T20:29:30.895Z,999.49
2019-03-16T20:30:30.999Z,999.50
2019-03-16T20:31:30.802Z,999.43
2019-03-16T20:32:30.757Z,999.47
2019-03-16T20:33:30.709Z,999.45
2019-03-16T20:37:02.065Z,999.51
2019-03-16T20:39:26.500Z,999.46
2019-03-16T20:40:26.484Z,999.49
2019-03-16T20:40:43.636Z,999.50
2019-03-16T20:41:06.263Z,999.46
2019-03-16T20:41:56.127Z,999.47
2019-03-16T20:42:56.104Z,999.47
2019-03-16T20:43:56.060Z,999.53
2019-03-16T20:44:55.971Z,999.49
2019-03-16T20:45:55.913Z,999.51
2019-03-16T20:46:55.851Z,999.51
2019-03-16T20:47:55.789Z,999.57
2019-03-16T20:48:55.767Z,999.51
2019-03-16T20:49:55.673Z,999.48
2019-03-16T20:50:55.615Z,999.48
2019-03-16T20:51:55.558Z,999.54
2019-03-16T20:52:55.501Z,999.52
2019-03-16T20:53:55.446Z,999.53
2019-03-16T20:54:55.423Z,999.57
2019-03-16T20:55:55.359Z,999.46
2019-03-16T20:56:55.271Z,999.57
2019-03-16T20:57:55.214Z,999.55
2019-03-16T20:58:55.150Z,999.52
2019-03-16T20:59:55.086Z,999.53
2019-03-16T21:00:57.986Z,999.49
2019-03-16T21:01:54.970Z,999.48
2019-03-16T21:02:54.894Z,999.53
2019-03-16T21:03:54.830Z,999.47
2019-03-16T21:04:54.769Z,999.53
2019-03-16T21:05:54.706Z,999.48
2019-03-16T21:06:54.678Z,999.47
2019-03-16T21:07:59.993Z,999.38
2019-03-16T21:08:13.438Z,999.38
2019-03-16T21:09:13.421Z,999.40
2019-03-16T21:10:13.366Z,999.42
2019-03-16T21:11:13.334Z,999.42
2019-03-16T21:12:13.323Z,999.43
2019-03-16T21:13:08.854Z,999.35
2019-03-16T21:14:24.109Z,999.41
2019-03-16T21:15:18.281Z,999.43
2019-03-16T21:16:15.163Z,999.44
2019-03-16T21:17:17.366Z,999.34
2019-03-16T21:18:17.451Z,999.38
2019-03-16T21:19:17.302Z,999.40
2019-03-16T21:20:17.265Z,999.39
2019-03-16T21:21:17.223Z,999.42
